Time;durP1;ratioP1;P1;durP2;ratioP2;P2;SDS_P1;SDS_P2;PMS_P1;PMS_P2;Temp;Humidity;BMP_temperature;BMP_pressure;BME280_temperature;BME280_humidity;BME280_pressure;Samples;Min_cycle;Max_cycle;Signal;HPM_P1;HPM_P2
2022/09/09 00:05:16;;;;;;;1.25;1.17;;;;;;;;;;12481333;28;20036;-74
2022/09/09 00:11:24;;;;;;;1.40;1.30;;;;;;;;;;12479700;28;20419;-74
2022/09/09 00:17:26;;;;;;;1.40;1.25;;;;;;;;;;12496834;28;20044;-74
2022/09/09 00:23:29;;;;;;;1.30;1.20;;;;;;;;;;12496829;28;20037;-74
2022/09/09 00:29:37;;;;;;;1.27;1.17;;;;;;;;;;12496316;28;20035;-74
2022/09/09 00:35:40;;;;;;;2.08;1.60;;;;;;;;;;12478703;28;20402;-74
2022/09/09 00:41:43;;;;;;;1.58;1.10;;;;;;;;;;12478405;28;20042;-76
2022/09/09 00:47:47;;;;;;;1.38;1.20;;;;;;;;;;12477761;28;20048;-73
2022/09/09 00:54:07;;;;;;;1.95;1.27;;;;;;;;;;12495165;28;20037;-74
2022/09/09 01:00:26;;;;;;;1.05;0.95;;;;;;;;;;12495071;28;20096;-74
2022/09/09 01:06:36;;;;;;;1.25;1.02;;;;;;;;;;12477205;28;20049;-74
2022/09/09 01:12:43;;;;;;;2.05;1.30;;;;;;;;;;12477566;28;20061;-74
2022/09/09 01:18:51;;;;;;;1.48;1.17;;;;;;;;;;12477035;28;20138;-75
2022/09/09 01:24:53;;;;;;;1.50;1.40;;;;;;;;;;12476875;28;20387;-74
2022/09/09 01:31:18;;;;;;;1.67;1.23;;;;;;;;;;12494484;28;20037;-74
2022/09/09 01:37:22;;;;;;;1.10;1.00;;;;;;;;;;12476385;28;20304;-74
2022/09/09 01:43:24;;;;;;;;;;;;;;;;;;12477602;28;20044;-74
2022/09/09 01:49:25;;;;;;;2.35;1.30;;;;;;;;;;12475926;28;20287;-74
2022/09/09 01:55:32;;;;;;;2.10;1.20;;;;;;;;;;12480312;28;20041;-74
2022/09/09 02:01:42;;;;;;;2.70;1.90;;;;;;;;;;12469358;28;20464;-74
2022/09/09 02:07:50;;;;;;;2.80;1.08;;;;;;;;;;12485178;28;20048;-75
2022/09/09 02:14:05;;;;;;;1.63;1.00;;;;;;;;;;12484768;28;20091;-74
2022/09/09 02:20:18;;;;;;;2.25;1.45;;;;;;;;;;12484308;28;20037;-74
2022/09/09 02:26:28;;;;;;;3.20;1.80;;;;;;;;;;12468699;28;20034;-74
2022/09/09 02:32:36;;;;;;;2.60;1.60;;;;;;;;;;12467911;28;20044;-74
2022/09/09 02:38:45;;;;;;;1.70;1.60;;;;;;;;;;12483737;28;20045;-74
2022/09/09 02:44:50;;;;;;;2.63;2.10;;;;;;;;;;12483092;28;20029;-74
2022/09/09 02:50:53;;;;;;;;;;;;;;;;;;12483084;28;20040;-74
2022/09/09 02:56:56;;;;;;;1.35;1.15;;;;;;;;;;12466211;28;20370;-74
2022/09/09 03:03:06;;;;;;;1.30;1.20;;;;;;;;;;12467241;28;20038;-74
2022/09/09 03:09:10;;;;;;;1.35;1.25;;;;;;;;;;12482015;28;20395;-74
2022/09/09 03:15:14;;;;;;;1.20;1.20;;;;;;;;;;12481806;28;20045;-74
2022/09/09 03:21:17;;;;;;;2.03;1.30;;;;;;;;;;12481679;28;20030;-75
2022/09/09 03:27:20;;;;;;;1.30;1.20;;;;;;;;;;12481240;28;20029;-75
2022/09/09 03:33:22;;;;;;;1.70;1.08;;;;;;;;;;12481020;28;20038;-75
2022/09/09 03:39:23;;;;;;;2.38;1.02;;;;;;;;;;12498868;28;20045;-75
2022/09/09 03:45:25;;;;;;;1.38;1.20;;;;;;;;;;12461128;28;20037;-73
2022/09/09 03:51:27;;;;;;;1.40;1.10;;;;;;;;;;12478130;28;20041;-73
2022/09/09 03:57:29;;;;;;;1.45;1.33;;;;;;;;;;12480134;28;20056;-73
2022/09/09 04:03:32;;;;;;;2.55;1.17;;;;;;;;;;12497878;28;20029;-74
2022/09/09 04:09:34;;;;;;;;;;;;;;;;;;12497192;28;20412;-74
2022/09/09 04:15:36;;;;;;;2.75;1.20;;;;;;;;;;12478473;28;19917;-74
2022/09/09 04:21:39;;;;;;;1.67;0.90;;;;;;;;;;12462172;28;20515;-74
2022/09/09 04:27:42;;;;;;;1.90;1.00;;;;;;;;;;12478534;28;20042;-75
2022/09/09 04:33:46;;;;;;;1.85;1.33;;;;;;;;;;12487490;28;20028;-75
2022/09/09 04:39:47;;;;;;;2.40;1.30;;;;;;;;;;12525531;28;20101;-75
2022/09/09 04:45:50;;;;;;;2.05;1.42;;;;;;;;;;12501046;28;20037;-75
2022/09/09 04:51:54;;;;;;;1.33;1.23;;;;;;;;;;12477808;28;20034;-74
2022/09/09 04:57:57;;;;;;;1.40;1.30;;;;;;;;;;12477182;28;20048;-75
2022/09/09 05:03:59;;;;;;;;;;;;;;;;;;12477667;28;20048;-75
2022/09/09 05:10:05;;;;;;;1.50;1.40;;;;;;;;;;12477071;28;19921;-75
2022/09/09 05:16:10;;;;;;;3.17;1.63;;;;;;;;;;12460848;28;20045;-75
2022/09/09 05:22:12;;;;;;;2.58;1.95;;;;;;;;;;12476838;28;20037;-75
2022/09/09 05:28:19;;;;;;;2.40;2.20;;;;;;;;;;12477433;28;20079;-75
2022/09/09 05:34:22;;;;;;;2.65;2.45;;;;;;;;;;12486317;28;20033;-75
2022/09/09 05:40:25;;;;;;;2.75;2.55;;;;;;;;;;12486612;28;20037;-75
2022/09/09 05:46:27;;;;;;;2.85;2.58;;;;;;;;;;12527421;28;20517;-75
2022/09/09 05:52:31;;;;;;;2.83;2.47;;;;;;;;;;12584298;28;20047;-75
2022/09/09 05:58:34;;;;;;;3.08;2.28;;;;;;;;;;12583710;28;20047;-75
2022/09/09 06:04:38;;;;;;;2.97;2.40;;;;;;;;;;12583719;28;20410;-75
2022/09/09 06:10:40;;;;;;;3.50;1.98;;;;;;;;;;12583052;28;20498;-75
2022/09/09 06:16:43;;;;;;;4.20;2.50;;;;;;;;;;12601734;28;20044;-75
2022/09/09 06:22:57;;;;;;;3.55;2.03;;;;;;;;;;12581316;28;20037;-75
2022/09/09 06:28:59;;;;;;;2.05;1.77;;;;;;;;;;12582503;28;20036;-75
2022/09/09 06:35:02;;;;;;;1.98;1.58;;;;;;;;;;12517038;28;20122;-74
2022/09/09 06:41:05;;;;;;;1.73;1.55;;;;;;;;;;12487542;28;20037;-75
2022/09/09 06:47:08;;;;;;;1.90;1.80;;;;;;;;;;12532673;28;20037;-74
2022/09/09 06:53:10;;;;;;;2.08;1.88;;;;;;;;;;12549581;28;20036;-74
2022/09/09 06:59:12;;;;;;;4.32;1.90;;;;;;;;;;12486551;28;20041;-75
2022/09/09 07:05:15;;;;;;;2.97;1.50;;;;;;;;;;12482826;28;20041;-74
2022/09/09 07:11:20;;;;;;;1.33;1.00;;;;;;;;;;12466452;28;20060;-74
2022/09/09 07:17:22;;;;;;;2.03;1.38;;;;;;;;;;12519364;28;20502;-74
2022/09/09 07:23:24;;;;;;;;;;;;;;;;;;12490566;28;20029;-75
2022/09/09 07:29:26;;;;;;;3.37;1.70;;;;;;;;;;12516048;28;20289;-74
2022/09/09 07:35:28;;;;;;;3.15;1.92;;;;;;;;;;12530789;28;20502;-74
2022/09/09 07:41:30;;;;;;;;;;;;;;;;;;12531116;28;20063;-74
2022/09/09 07:47:32;;;;;;;3.00;2.00;;;;;;;;;;12514416;28;19909;-74
2022/09/09 07:53:35;;;;;;;2.97;1.75;;;;;;;;;;12512583;28;20040;-76
2022/09/09 07:59:38;;;;;;;3.20;1.48;;;;;;;;;;12529607;28;20048;-77
2022/09/09 08:05:39;;;;;;;;;;;;;;;;;;12503863;28;20034;-78
2022/09/09 08:11:42;;;;;;;3.33;1.75;;;;;;;;;;12487112;28;19920;-76
2022/09/09 08:17:44;;;;;;;3.15;1.73;;;;;;;;;;12507046;28;20041;-76
2022/09/09 08:23:47;;;;;;;3.58;1.58;;;;;;;;;;12516655;28;20495;-76
2022/09/09 08:29:51;;;;;;;2.45;1.90;;;;;;;;;;12479611;28;20029;-76
2022/09/09 08:35:53;;;;;;;4.07;1.80;;;;;;;;;;12494910;28;20063;-76
2022/09/09 08:41:55;;;;;;;;;;;;;;;;;;12491320;28;20049;-75
2022/09/09 08:48:13;;;;;;;6.40;2.20;;;;;;;;;;12489374;28;19909;-76
2022/09/09 08:54:15;;;;;;;3.55;1.73;;;;;;;;;;12540208;28;20028;-77
2022/09/09 09:00:16;;;;;;;3.50;2.00;;;;;;;;;;12527379;28;20044;-77
2022/09/09 09:06:19;;;;;;;;;;;;;;;;;;12495592;28;20041;-77
2022/09/09 09:12:23;;;;;;;4.47;2.13;;;;;;;;;;12472165;28;19921;-78
2022/09/09 09:18:25;;;;;;;7.55;2.83;;;;;;;;;;12496250;28;20129;-77
2022/09/09 09:24:32;;;;;;;2.60;1.75;;;;;;;;;;12499006;28;20521;-77
2022/09/09 09:30:42;;;;;;;6.10;2.50;;;;;;;;;;12499721;28;20084;-77
2022/09/09 09:36:52;;;;;;;2.13;1.77;;;;;;;;;;12481653;28;20049;-76
2022/09/09 09:42:56;;;;;;;3.30;1.80;;;;;;;;;;12491626;28;20052;-76
2022/09/09 09:49:08;;;;;;;4.05;1.90;;;;;;;;;;12514820;28;20052;-75
2022/09/09 09:55:14;;;;;;;1.85;1.60;;;;;;;;;;12530399;28;20045;-75
2022/09/09 10:01:26;;;;;;;2.47;1.88;;;;;;;;;;12527619;28;20016;-75
2022/09/09 10:07:28;;;;;;;4.55;1.85;;;;;;;;;;12521263;28;20040;-74
2022/09/09 10:13:32;;;;;;;3.22;1.80;;;;;;;;;;12524493;28;20057;-74
2022/09/09 10:19:35;;;;;;;4.18;1.75;;;;;;;;;;12517014;28;20501;-74
2022/09/09 10:25:40;;;;;;;2.80;1.90;;;;;;;;;;12527080;28;20112;-74
2022/09/09 10:31:45;;;;;;;3.80;1.83;;;;;;;;;;12550935;28;20029;-75
2022/09/09 10:37:47;;;;;;;2.85;1.20;;;;;;;;;;12550777;28;20395;-75
2022/09/09 10:44:07;;;;;;;1.95;1.00;;;;;;;;;;12532863;28;20029;-74
2022/09/09 10:50:24;;;;;;;1.60;1.10;;;;;;;;;;12532998;28;20044;-75
2022/09/09 10:56:27;;;;;;;2.83;1.10;;;;;;;;;;12515266;28;20044;-75
2022/09/09 11:02:30;;;;;;;1.17;1.08;;;;;;;;;;12515600;28;20033;-75
2022/09/09 11:08:34;;;;;;;3.38;1.25;;;;;;;;;;12549593;28;20045;-75
2022/09/09 11:14:55;;;;;;;2.35;1.40;;;;;;;;;;12531698;28;20029;-75
2022/09/09 11:21:03;;;;;;;1.23;1.13;;;;;;;;;;12515386;28;20041;-75
2022/09/09 11:27:18;;;;;;;1.48;0.85;;;;;;;;;;12529665;28;20529;-75
2022/09/09 11:33:49;;;;;;;1.60;0.95;;;;;;;;;;12530599;28;20372;-74
2022/09/09 11:39:58;;;;;;;2.13;1.10;;;;;;;;;;12548470;28;20052;-75
2022/09/09 11:46:02;;;;;;;1.20;1.10;;;;;;;;;;12530107;28;20482;-75
2022/09/09 11:52:11;;;;;;;3.75;1.20;;;;;;;;;;12529512;28;20045;-75
2022/09/09 11:58:13;;;;;;;1.67;1.50;;;;;;;;;;12546923;28;20045;-75
2022/09/09 12:04:15;;;;;;;1.77;1.20;;;;;;;;;;12512946;28;20040;-75
2022/09/09 12:10:27;;;;;;;2.22;1.48;;;;;;;;;;12546592;28;20053;-76
2022/09/09 12:16:38;;;;;;;2.72;1.60;;;;;;;;;;12546177;28;20053;-75
2022/09/09 12:22:45;;;;;;;1.83;1.40;;;;;;;;;;12545940;28;20390;-75
2022/09/09 12:28:50;;;;;;;1.55;1.45;;;;;;;;;;12528688;28;20040;-75
2022/09/09 12:35:10;;;;;;;2.67;1.70;;;;;;;;;;12527502;28;20037;-75
2022/09/09 12:41:22;;;;;;;1.52;1.33;;;;;;;;;;12545730;28;20463;-74
2022/09/09 12:47:40;;;;;;;1.80;1.55;;;;;;;;;;12528308;28;20033;-75
2022/09/09 12:53:42;;;;;;;1.83;1.70;;;;;;;;;;12510917;28;20040;-74
2022/09/09 12:59:45;;;;;;;;;;;;;;;;;;12545382;28;20037;-74
2022/09/09 13:05:46;;;;;;;1.58;1.17;;;;;;;;;;12510947;28;19916;-75
2022/09/09 13:11:56;;;;;;;1.70;0.98;;;;;;;;;;12544765;28;20048;-75
2022/09/09 13:18:00;;;;;;;1.25;0.80;;;;;;;;;;12544346;28;20045;-75
2022/09/09 13:24:03;;;;;;;1.33;1.10;;;;;;;;;;12527346;28;20048;-75
2022/09/09 13:30:42;;;;;;;2.03;1.10;;;;;;;;;;12510743;28;20036;-76
2022/09/09 13:36:48;;;;;;;2.65;1.48;;;;;;;;;;12296017;29;20063;-76
2022/09/09 13:42:56;;;;;;;1.70;0.80;;;;;;;;;;12393951;28;20045;-76
2022/09/09 13:48:58;;;;;;;2.65;0.68;;;;;;;;;;12552247;28;20036;-74
2022/09/09 13:55:00;;;;;;;1.35;0.60;;;;;;;;;;12535672;28;20048;-75
2022/09/09 14:01:01;;;;;;;0.22;0.20;;;;;;;;;;12553450;28;20494;-76
2022/09/09 14:07:03;;;;;;;0.30;0.20;;;;;;;;;;12534839;28;20429;-74
2022/09/09 14:13:05;;;;;;;1.42;0.50;;;;;;;;;;12552662;28;20057;-74
2022/09/09 14:19:09;;;;;;;0.65;0.38;;;;;;;;;;12534177;28;20411;-74
2022/09/09 14:25:13;;;;;;;0.90;0.50;;;;;;;;;;12551672;28;20028;-75
2022/09/09 14:31:15;;;;;;;1.58;0.50;;;;;;;;;;12551675;28;20033;-74
2022/09/09 14:37:18;;;;;;;1.00;0.70;;;;;;;;;;12552447;28;20052;-75
2022/09/09 14:43:20;;;;;;;1.20;0.60;;;;;;;;;;12541295;28;20048;-74
2022/09/09 14:49:21;;;;;;;;;;;;;;;;;;12586249;28;20397;-75
2022/09/09 14:55:23;;;;;;;1.20;0.90;;;;;;;;;;12550041;28;20378;-74
2022/09/09 15:01:26;;;;;;;2.40;1.08;;;;;;;;;;12549840;28;20044;-74
2022/09/09 15:07:28;;;;;;;1.33;0.88;;;;;;;;;;12549818;28;20415;-74
2022/09/09 15:13:30;;;;;;;1.00;1.00;;;;;;;;;;12515752;28;20061;-74
2022/09/09 15:19:32;;;;;;;2.35;0.90;;;;;;;;;;12531661;28;20036;-74
2022/09/09 15:25:34;;;;;;;1.85;1.10;;;;;;;;;;12548740;28;20029;-75
2022/09/09 15:31:36;;;;;;;3.40;0.90;;;;;;;;;;12548795;28;20060;-74
2022/09/09 15:37:38;;;;;;;0.88;0.63;;;;;;;;;;12548858;28;20048;-74
2022/09/09 15:43:43;;;;;;;1.00;0.60;;;;;;;;;;12530686;28;20043;-74
2022/09/09 15:49:45;;;;;;;1.23;0.85;;;;;;;;;;12530204;28;20036;-74
2022/09/09 15:55:47;;;;;;;1.65;0.98;;;;;;;;;;12547533;28;20054;-74
2022/09/09 16:01:50;;;;;;;1.00;0.63;;;;;;;;;;12529529;28;20037;-74
2022/09/09 16:07:52;;;;;;;1.30;0.90;;;;;;;;;;12546687;28;20044;-74
2022/09/09 16:13:55;;;;;;;0.90;0.80;;;;;;;;;;12528471;28;20060;-73
2022/09/09 16:19:57;;;;;;;0.50;0.50;;;;;;;;;;12546106;28;20044;-74
2022/09/09 16:25:59;;;;;;;0.77;0.60;;;;;;;;;;12511825;28;20041;-74
2022/09/09 16:32:01;;;;;;;0.60;0.60;;;;;;;;;;12528146;28;20037;-75
2022/09/09 16:38:02;;;;;;;1.00;0.70;;;;;;;;;;12527818;28;20918;-74
2022/09/09 16:44:05;;;;;;;0.90;0.60;;;;;;;;;;12526949;28;20395;-76
2022/09/09 16:50:07;;;;;;;0.60;0.60;;;;;;;;;;12526946;28;20055;-75
2022/09/09 16:56:13;;;;;;;0.70;0.70;;;;;;;;;;12526805;28;20060;-74
2022/09/09 17:02:15;;;;;;;1.20;0.73;;;;;;;;;;12527069;28;20021;-74
2022/09/09 17:08:17;;;;;;;0.85;0.60;;;;;;;;;;12526866;28;20041;-75
2022/09/09 17:14:20;;;;;;;1.30;0.70;;;;;;;;;;12544313;28;20029;-74
2022/09/09 17:20:22;;;;;;;1.20;0.98;;;;;;;;;;12526242;28;20048;-75
2022/09/09 17:26:26;;;;;;;0.70;0.70;;;;;;;;;;12550400;28;20033;-74
2022/09/09 17:32:28;;;;;;;1.85;0.90;;;;;;;;;;12536260;28;20033;-75
2022/09/09 17:38:30;;;;;;;1.25;1.02;;;;;;;;;;12535919;28;20060;-73
2022/09/09 17:44:32;;;;;;;;;;;;;;;;;;12554017;28;20029;-74
2022/09/09 17:50:33;;;;;;;1.20;1.13;;;;;;;;;;12553393;28;19909;-74
2022/09/09 17:56:35;;;;;;;1.15;1.00;;;;;;;;;;12535285;28;20036;-74
2022/09/09 18:02:38;;;;;;;1.17;0.90;;;;;;;;;;12534763;28;20052;-74
2022/09/09 18:08:40;;;;;;;0.75;0.75;;;;;;;;;;12534513;28;20060;-75
2022/09/09 18:14:41;;;;;;;1.20;1.20;;;;;;;;;;12534182;28;20028;-74
2022/09/09 18:20:43;;;;;;;1.45;1.33;;;;;;;;;;12517809;28;20037;-74
2022/09/09 18:26:47;;;;;;;1.15;0.90;;;;;;;;;;12534131;28;20044;-74
2022/09/09 18:32:51;;;;;;;0.90;0.90;;;;;;;;;;12533061;28;20055;-74
2022/09/09 18:38:55;;;;;;;0.98;0.93;;;;;;;;;;12549771;28;20052;-75
2022/09/09 18:44:57;;;;;;;1.00;0.90;;;;;;;;;;12550430;28;20028;-74
2022/09/09 18:51:03;;;;;;;1.58;1.10;;;;;;;;;;12532818;28;20037;-74
2022/09/09 18:57:05;;;;;;;1.48;1.15;;;;;;;;;;12532372;28;20047;-74
2022/09/09 19:03:07;;;;;;;1.92;1.25;;;;;;;;;;12532096;28;20032;-75
2022/09/09 19:09:10;;;;;;;1.65;1.20;;;;;;;;;;12549469;28;20403;-75
2022/09/09 19:15:12;;;;;;;1.17;1.08;;;;;;;;;;12550055;28;20029;-75
2022/09/09 19:21:16;;;;;;;1.60;1.25;;;;;;;;;;12543041;28;20049;-75
2022/09/09 19:27:18;;;;;;;1.13;1.02;;;;;;;;;;12539472;28;20032;-75
2022/09/09 19:33:21;;;;;;;0.70;0.70;;;;;;;;;;12530369;28;20048;-75
2022/09/09 19:39:22;;;;;;;0.90;0.90;;;;;;;;;;12548086;28;20429;-74
2022/09/09 19:45:26;;;;;;;2.03;0.90;;;;;;;;;;12513789;28;20505;-75
2022/09/09 19:51:28;;;;;;;0.88;0.70;;;;;;;;;;12546506;28;20037;-74
2022/09/09 19:57:30;;;;;;;0.60;0.60;;;;;;;;;;12547254;28;20052;-75
2022/09/09 20:03:32;;;;;;;0.70;0.70;;;;;;;;;;12529976;28;20029;-73
2022/09/09 20:09:33;;;;;;;1.77;0.73;;;;;;;;;;12529366;28;20056;-75
2022/09/09 20:15:37;;;;;;;0.80;0.80;;;;;;;;;;12529627;28;20049;-75
2022/09/09 20:21:43;;;;;;;1.23;1.10;;;;;;;;;;12528802;28;20394;-75
2022/09/09 20:27:44;;;;;;;2.67;1.10;;;;;;;;;;12546532;28;20376;-74
2022/09/09 20:33:46;;;;;;;1.30;1.15;;;;;;;;;;12546292;28;20040;-75
2022/09/09 20:39:48;;;;;;;1.42;1.08;;;;;;;;;;12528110;28;20600;-75
2022/09/09 20:45:52;;;;;;;1.73;1.23;;;;;;;;;;12544935;28;20746;-74
2022/09/09 20:51:54;;;;;;;1.17;0.80;;;;;;;;;;12528051;28;20364;-74
2022/09/09 20:57:57;;;;;;;0.93;0.63;;;;;;;;;;12544835;28;20041;-74
2022/09/09 21:03:59;;;;;;;1.73;0.90;;;;;;;;;;12526526;28;20032;-74
2022/09/09 21:10:01;;;;;;;0.70;0.63;;;;;;;;;;12526355;28;20376;-74
2022/09/09 21:16:04;;;;;;;1.25;0.90;;;;;;;;;;12526061;28;20059;-75
2022/09/09 21:22:06;;;;;;;3.72;1.20;;;;;;;;;;12543850;28;20059;-75
2022/09/09 21:28:08;;;;;;;1.60;1.40;;;;;;;;;;12543787;28;20037;-74
2022/09/09 21:34:12;;;;;;;;;;;;;;;;;;12544327;28;20280;-75
2022/09/09 21:40:13;;;;;;;1.33;1.23;;;;;;;;;;12526021;28;19923;-75
2022/09/09 21:46:16;;;;;;;1.30;1.20;;;;;;;;;;12509267;28;20033;-75
2022/09/09 21:52:19;;;;;;;1.13;1.08;;;;;;;;;;12543159;28;20033;-75
2022/09/09 21:58:21;;;;;;;0.90;0.90;;;;;;;;;;12543190;28;20056;-75
2022/09/09 22:04:23;;;;;;;0.82;0.80;;;;;;;;;;12525449;28;20040;-75
2022/09/09 22:10:27;;;;;;;;;;;;;;;;;;12526977;28;20044;-75
2022/09/09 22:16:30;;;;;;;1.17;1.00;;;;;;;;;;12552022;28;19921;-75
2022/09/09 22:22:32;;;;;;;0.85;0.80;;;;;;;;;;12517652;28;20244;-75
2022/09/09 22:28:34;;;;;;;0.80;0.80;;;;;;;;;;12533908;28;20033;-75
2022/09/09 22:34:37;;;;;;;0.68;0.68;;;;;;;;;;12533376;28;20029;-75
2022/09/09 22:40:39;;;;;;;0.98;0.98;;;;;;;;;;12533713;28;20387;-75
2022/09/09 22:46:41;;;;;;;1.00;1.00;;;;;;;;;;12533299;28;20399;-75
2022/09/09 22:52:43;;;;;;;1.00;0.90;;;;;;;;;;12516458;28;20534;-75
2022/09/09 22:58:45;;;;;;;1.00;0.80;;;;;;;;;;12532463;28;20087;-75
2022/09/09 23:04:46;;;;;;;;;;;;;;;;;;12515835;28;20033;-75
2022/09/09 23:10:48;;;;;;;1.03;0.97;;;;;;;;;;12531511;28;19917;-75
2022/09/09 23:16:51;;;;;;;;;;;;;;;;;;12532127;28;20052;-75
2022/09/09 23:22:53;;;;;;;1.27;0.75;;;;;;;;;;12548594;28;19908;-75
2022/09/09 23:28:57;;;;;;;;;;;;;;;;;;12531835;28;20033;-75
2022/09/09 23:34:58;;;;;;;0.60;0.60;;;;;;;;;;12530540;28;19908;-75
2022/09/09 23:41:01;;;;;;;0.60;0.60;;;;;;;;;;12514718;28;20037;-75
2022/09/09 23:47:03;;;;;;;0.68;0.60;;;;;;;;;;12547870;28;20087;-75
2022/09/09 23:53:05;;;;;;;0.73;0.70;;;;;;;;;;12513955;28;20036;-75
2022/09/09 23:59:07;;;;;;;;;;;;;;;;;;12547448;28;20044;-75
